首页
METAR-TAF:

METAR-TAF

机场 :

Marathon, 安大略省, 加拿大

纬度: 48-45-26N, 经度: 086-20-45W, 海拔: 315米

当前天气观测

该预报发布于1小时和58分钟前的21:00 UTC
风速7节,风向多变
温度 9°C
湿度 76%
气压 1011 hPa
能見度: 96.5公里
多云层高于9000英尺
多云层高于25000英尺

METAR: CYSP 222100Z VRB07KT 60SM BKN090 BKN250 09/05 A2986 RMK AC5CC2 LAST STFD OBS / NEXT 31200UTC SLP125

时间: 18:58 (22:58 UTC)

预报

该预报发布于9小时和20分钟前的13:38 UTC
预报有效从22日的 14点(UTC)到 22日的 21点(UTC)
风速8节,风向西南
能見度: 10公里
散云层高于3000英尺
多云层高于8000英尺

TAF: CYSP 221338Z 2214/2221 23008KT P6SM SCT030 BKN080 RMK NXT FCST WILL BE ISSUED AT 231345Z

超过4000个机场的气象观测和天气预报(METAR&TAF报告)。

可查询的气象台以黄色和红色小点在地图上表示。

将鼠标移到小点上方,可查看气象台名称。

然后点击查看天气观测和预报。

如需切换地图:点击带黑十字的绿色按钮放大地图;点击带横线的绿色按钮缩小地图;或者点击绿色箭头查看邻近地区的地图。


METAR-TAF: